sensor_id;sensor_type;location;lat;lon;timestamp;pressure;altitude;pressure_sealevel;temperature;humidity
30967;BME280;17649;51.836;8.330;2022-09-09T00:01:40;100335.63;;;16.08;100.00
30967;BME280;17649;51.836;8.330;2022-09-09T00:05:04;100324.38;;;16.08;100.00
30967;BME280;17649;51.836;8.330;2022-09-09T00:08:19;100325.81;;;16.22;100.00
30967;BME280;17649;51.836;8.330;2022-09-09T00:11:29;100325.72;;;16.23;100.00
30967;BME280;17649;51.836;8.330;2022-09-09T00:24:23;100337.72;;;16.35;100.00
30967;BME280;17649;51.836;8.330;2022-09-09T00:27:46;100337.81;;;16.24;100.00
30967;BME280;17649;51.836;8.330;2022-09-09T00:30:51;100328.31;;;16.23;100.00
30967;BME280;17649;51.836;8.330;2022-09-09T00:33:53;100333.41;;;16.25;100.00
30967;BME280;17649;51.836;8.330;2022-09-09T00:36:59;100328.75;;;16.28;100.00
30967;BME280;17649;51.836;8.330;2022-09-09T00:40:02;100329.44;;;16.30;100.00
30967;BME280;17649;51.836;8.330;2022-09-09T00:43:31;100336.00;;;16.25;100.00
30967;BME280;17649;51.836;8.330;2022-09-09T00:50:12;100327.16;;;16.16;100.00
30967;BME280;17649;51.836;8.330;2022-09-09T00:57:01;100330.03;;;16.13;100.00
30967;BME280;17649;51.836;8.330;2022-09-09T01:03:37;100334.38;;;16.24;100.00
30967;BME280;17649;51.836;8.330;2022-09-09T01:06:38;100324.16;;;16.21;100.00
30967;BME280;17649;51.836;8.330;2022-09-09T01:12:43;100328.88;;;16.27;100.00
30967;BME280;17649;51.836;8.330;2022-09-09T01:15:48;100328.69;;;16.19;100.00
30967;BME280;17649;51.836;8.330;2022-09-09T01:18:54;100333.53;;;16.23;100.00
30967;BME280;17649;51.836;8.330;2022-09-09T01:22:22;100329.84;;;16.26;100.00
30967;BME280;17649;51.836;8.330;2022-09-09T01:28:43;100332.81;;;16.21;100.00
30967;BME280;17649;51.836;8.330;2022-09-09T01:32:02;100330.94;;;16.23;100.00
30967;BME280;17649;51.836;8.330;2022-09-09T01:35:04;100321.81;;;16.18;100.00
30967;BME280;17649;51.836;8.330;2022-09-09T01:38:10;100321.53;;;16.21;100.00
30967;BME280;17649;51.836;8.330;2022-09-09T01:41:11;100328.81;;;16.17;100.00
30967;BME280;17649;51.836;8.330;2022-09-09T01:44:14;100320.41;;;16.14;100.00
30967;BME280;17649;51.836;8.330;2022-09-09T01:47:16;100337.59;;;16.16;100.00
30967;BME280;17649;51.836;8.330;2022-09-09T01:50:20;100334.03;;;16.17;100.00
30967;BME280;17649;51.836;8.330;2022-09-09T01:53:22;100333.91;;;16.19;100.00
30967;BME280;17649;51.836;8.330;2022-09-09T01:56:47;100335.69;;;16.18;100.00
30967;BME280;17649;51.836;8.330;2022-09-09T02:00:11;100332.72;;;16.23;100.00
30967;BME280;17649;51.836;8.330;2022-09-09T02:06:35;100330.94;;;16.23;100.00
30967;BME280;17649;51.836;8.330;2022-09-09T02:09:40;100330.09;;;16.23;100.00
30967;BME280;17649;51.836;8.330;2022-09-09T02:12:51;100326.91;;;16.19;100.00
30967;BME280;17649;51.836;8.330;2022-09-09T02:22:17;100325.31;;;16.28;100.00
30967;BME280;17649;51.836;8.330;2022-09-09T02:25:24;100326.69;;;16.32;100.00
30967;BME280;17649;51.836;8.330;2022-09-09T02:28:30;100330.28;;;16.31;100.00
30967;BME280;17649;51.836;8.330;2022-09-09T02:31:34;100326.84;;;16.30;100.00
30967;BME280;17649;51.836;8.330;2022-09-09T02:34:43;100331.38;;;16.28;100.00
30967;BME280;17649;51.836;8.330;2022-09-09T02:37:46;100328.06;;;16.26;100.00
30967;BME280;17649;51.836;8.330;2022-09-09T02:40:48;100334.28;;;16.35;100.00
30967;BME280;17649;51.836;8.330;2022-09-09T02:43:50;100326.53;;;16.24;100.00
30967;BME280;17649;51.836;8.330;2022-09-09T02:47:26;100333.53;;;16.23;100.00
30967;BME280;17649;51.836;8.330;2022-09-09T02:54:18;100330.16;;;16.12;100.00
30967;BME280;17649;51.836;8.330;2022-09-09T02:57:27;100333.25;;;16.05;100.00
30967;BME280;17649;51.836;8.330;2022-09-09T03:00:34;100337.22;;;16.00;100.00
30967;BME280;17649;51.836;8.330;2022-09-09T03:03:40;100327.16;;;15.95;100.00
30967;BME280;17649;51.836;8.330;2022-09-09T03:06:45;100344.91;;;16.01;100.00
30967;BME280;17649;51.836;8.330;2022-09-09T03:09:47;100350.34;;;16.09;100.00
30967;BME280;17649;51.836;8.330;2022-09-09T03:12:51;100352.69;;;16.13;100.00
30967;BME280;17649;51.836;8.330;2022-09-09T03:15:54;100349.94;;;16.14;100.00
30967;BME280;17649;51.836;8.330;2022-09-09T03:18:55;100341.47;;;16.01;100.00
30967;BME280;17649;51.836;8.330;2022-09-09T03:22:00;100348.16;;;16.15;100.00
30967;BME280;17649;51.836;8.330;2022-09-09T03:25:02;100345.16;;;16.19;100.00
30967;BME280;17649;51.836;8.330;2022-09-09T03:28:04;100340.53;;;16.23;100.00
30967;BME280;17649;51.836;8.330;2022-09-09T03:31:06;100351.72;;;16.14;100.00
30967;BME280;17649;51.836;8.330;2022-09-09T03:34:12;100342.81;;;16.16;100.00
30967;BME280;17649;51.836;8.330;2022-09-09T03:37:14;100336.38;;;16.20;100.00
30967;BME280;17649;51.836;8.330;2022-09-09T03:40:17;100331.88;;;16.22;100.00
30967;BME280;17649;51.836;8.330;2022-09-09T03:43:25;100331.63;;;16.25;100.00
30967;BME280;17649;51.836;8.330;2022-09-09T03:46:36;100327.69;;;16.10;100.00
30967;BME280;17649;51.836;8.330;2022-09-09T03:49:39;100328.75;;;16.07;100.00
30967;BME280;17649;51.836;8.330;2022-09-09T03:52:42;100336.63;;;16.17;100.00
30967;BME280;17649;51.836;8.330;2022-09-09T03:55:46;100341.97;;;15.95;100.00
30967;BME280;17649;51.836;8.330;2022-09-09T03:58:47;100340.84;;;16.08;100.00
30967;BME280;17649;51.836;8.330;2022-09-09T04:01:49;100348.84;;;15.96;100.00
30967;BME280;17649;51.836;8.330;2022-09-09T04:04:51;100348.16;;;15.94;100.00
30967;BME280;17649;51.836;8.330;2022-09-09T04:07:52;100331.59;;;15.84;100.00
30967;BME280;17649;51.836;8.330;2022-09-09T04:10:56;100336.34;;;15.78;100.00
30967;BME280;17649;51.836;8.330;2022-09-09T04:13:58;100340.38;;;15.83;100.00
30967;BME280;17649;51.836;8.330;2022-09-09T04:17:00;100339.66;;;15.80;100.00
30967;BME280;17649;51.836;8.330;2022-09-09T04:20:05;100339.41;;;15.84;100.00
30967;BME280;17649;51.836;8.330;2022-09-09T04:23:08;100340.38;;;15.83;100.00
30967;BME280;17649;51.836;8.330;2022-09-09T04:26:12;100343.69;;;15.85;100.00
30967;BME280;17649;51.836;8.330;2022-09-09T04:29:20;100357.56;;;15.74;100.00
30967;BME280;17649;51.836;8.330;2022-09-09T04:32:23;100349.63;;;15.75;100.00
30967;BME280;17649;51.836;8.330;2022-09-09T04:35:27;100354.84;;;15.75;100.00
30967;BME280;17649;51.836;8.330;2022-09-09T04:38:29;100346.88;;;15.77;100.00
30967;BME280;17649;51.836;8.330;2022-09-09T04:41:30;100344.19;;;15.78;100.00
30967;BME280;17649;51.836;8.330;2022-09-09T04:44:32;100345.84;;;15.79;100.00
30967;BME280;17649;51.836;8.330;2022-09-09T04:47:34;100351.75;;;15.82;100.00
30967;BME280;17649;51.836;8.330;2022-09-09T04:50:37;100350.72;;;15.73;100.00
30967;BME280;17649;51.836;8.330;2022-09-09T04:53:39;100365.63;;;15.82;100.00
30967;BME280;17649;51.836;8.330;2022-09-09T04:56:41;100357.31;;;15.77;100.00
30967;BME280;17649;51.836;8.330;2022-09-09T04:59:44;100355.06;;;15.84;100.00
30967;BME280;17649;51.836;8.330;2022-09-09T05:02:46;100359.19;;;15.86;100.00
30967;BME280;17649;51.836;8.330;2022-09-09T05:05:48;100357.16;;;15.90;100.00
30967;BME280;17649;51.836;8.330;2022-09-09T05:08:51;100357.03;;;15.91;100.00
30967;BME280;17649;51.836;8.330;2022-09-09T05:11:52;100356.44;;;15.99;100.00
30967;BME280;17649;51.836;8.330;2022-09-09T05:14:54;100357.25;;;15.99;100.00
30967;BME280;17649;51.836;8.330;2022-09-09T05:18:01;100368.84;;;16.06;100.00
30967;BME280;17649;51.836;8.330;2022-09-09T05:21:03;100362.78;;;16.06;100.00
30967;BME280;17649;51.836;8.330;2022-09-09T05:24:06;100368.75;;;16.08;100.00
30967;BME280;17649;51.836;8.330;2022-09-09T05:27:11;100368.13;;;16.04;100.00
30967;BME280;17649;51.836;8.330;2022-09-09T05:30:12;100369.00;;;16.26;100.00
30967;BME280;17649;51.836;8.330;2022-09-09T05:33:14;100360.38;;;16.35;100.00
30967;BME280;17649;51.836;8.330;2022-09-09T05:36:20;100358.94;;;16.42;100.00
30967;BME280;17649;51.836;8.330;2022-09-09T05:39:22;100357.34;;;16.30;100.00
30967;BME280;17649;51.836;8.330;2022-09-09T05:42:34;100356.00;;;16.35;100.00
30967;BME280;17649;51.836;8.330;2022-09-09T05:45:35;100349.88;;;16.46;100.00
30967;BME280;17649;51.836;8.330;2022-09-09T05:48:43;100359.41;;;16.68;100.00
30967;BME280;17649;51.836;8.330;2022-09-09T05:51:45;100348.13;;;16.67;100.00
30967;BME280;17649;51.836;8.330;2022-09-09T05:54:57;100356.25;;;16.74;100.00
30967;BME280;17649;51.836;8.330;2022-09-09T05:58:00;100349.66;;;16.70;100.00
30967;BME280;17649;51.836;8.330;2022-09-09T06:01:07;100352.81;;;16.74;100.00
30967;BME280;17649;51.836;8.330;2022-09-09T06:04:09;100353.03;;;16.91;100.00
30967;BME280;17649;51.836;8.330;2022-09-09T06:07:12;100352.41;;;17.09;100.00
30967;BME280;17649;51.836;8.330;2022-09-09T06:10:15;100352.56;;;17.17;100.00
30967;BME280;17649;51.836;8.330;2022-09-09T06:13:16;100348.22;;;17.27;100.00
30967;BME280;17649;51.836;8.330;2022-09-09T06:16:21;100357.16;;;17.34;100.00
30967;BME280;17649;51.836;8.330;2022-09-09T06:19:26;100353.81;;;17.22;100.00
30967;BME280;17649;51.836;8.330;2022-09-09T06:22:28;100352.78;;;17.44;100.00
30967;BME280;17649;51.836;8.330;2022-09-09T06:25:30;100346.59;;;17.45;100.00
30967;BME280;17649;51.836;8.330;2022-09-09T06:28:35;100340.81;;;17.42;100.00
30967;BME280;17649;51.836;8.330;2022-09-09T06:31:37;100341.38;;;17.65;100.00
30967;BME280;17649;51.836;8.330;2022-09-09T06:34:40;100338.19;;;17.51;100.00
30967;BME280;17649;51.836;8.330;2022-09-09T06:37:44;100336.94;;;17.36;100.00
30967;BME280;17649;51.836;8.330;2022-09-09T06:40:57;100342.84;;;17.38;100.00
30967;BME280;17649;51.836;8.330;2022-09-09T06:44:02;100347.97;;;17.49;100.00
30967;BME280;17649;51.836;8.330;2022-09-09T06:47:04;100343.16;;;17.45;100.00
30967;BME280;17649;51.836;8.330;2022-09-09T06:50:08;100346.47;;;17.56;100.00
30967;BME280;17649;51.836;8.330;2022-09-09T06:53:11;100344.13;;;17.63;100.00
30967;BME280;17649;51.836;8.330;2022-09-09T06:56:33;100351.06;;;17.74;100.00
30967;BME280;17649;51.836;8.330;2022-09-09T06:59:35;100352.03;;;17.73;100.00
30967;BME280;17649;51.836;8.330;2022-09-09T07:02:38;100363.19;;;18.04;100.00
30967;BME280;17649;51.836;8.330;2022-09-09T07:05:40;100354.50;;;18.23;100.00
30967;BME280;17649;51.836;8.330;2022-09-09T07:08:41;100355.16;;;18.25;100.00
30967;BME280;17649;51.836;8.330;2022-09-09T07:11:47;100356.25;;;18.41;100.00
30967;BME280;17649;51.836;8.330;2022-09-09T07:14:49;100347.88;;;18.18;100.00
30967;BME280;17649;51.836;8.330;2022-09-09T07:17:50;100348.44;;;18.32;100.00
30967;BME280;17649;51.836;8.330;2022-09-09T07:20:55;100348.72;;;18.19;100.00
30967;BME280;17649;51.836;8.330;2022-09-09T07:23:58;100351.97;;;18.50;100.00
30967;BME280;17649;51.836;8.330;2022-09-09T07:26:59;100351.81;;;18.42;100.00
30967;BME280;17649;51.836;8.330;2022-09-09T07:30:00;100352.94;;;18.49;100.00
30967;BME280;17649;51.836;8.330;2022-09-09T07:33:03;100341.94;;;18.26;100.00
30967;BME280;17649;51.836;8.330;2022-09-09T07:36:24;100355.72;;;18.28;100.00
30967;BME280;17649;51.836;8.330;2022-09-09T07:39:27;100350.03;;;18.42;100.00
30967;BME280;17649;51.836;8.330;2022-09-09T07:42:29;100355.94;;;18.54;100.00
30967;BME280;17649;51.836;8.330;2022-09-09T07:45:33;100363.00;;;18.63;100.00
30967;BME280;17649;51.836;8.330;2022-09-09T07:48:34;100352.72;;;18.80;100.00
30967;BME280;17649;51.836;8.330;2022-09-09T07:51:38;100360.22;;;19.02;100.00
30967;BME280;17649;51.836;8.330;2022-09-09T07:54:39;100349.50;;;19.23;100.00
30967;BME280;17649;51.836;8.330;2022-09-09T07:57:42;100346.72;;;19.52;100.00
30967;BME280;17649;51.836;8.330;2022-09-09T08:00:46;100342.13;;;19.54;100.00
30967;BME280;17649;51.836;8.330;2022-09-09T08:03:54;100350.47;;;19.49;100.00
30967;BME280;17649;51.836;8.330;2022-09-09T08:07:00;100344.13;;;19.42;100.00
30967;BME280;17649;51.836;8.330;2022-09-09T08:10:04;100343.41;;;19.50;100.00
30967;BME280;17649;51.836;8.330;2022-09-09T08:13:06;100337.56;;;19.11;100.00
30967;BME280;17649;51.836;8.330;2022-09-09T08:16:31;100350.75;;;19.19;100.00
30967;BME280;17649;51.836;8.330;2022-09-09T08:19:34;100355.28;;;19.26;100.00
30967;BME280;17649;51.836;8.330;2022-09-09T08:22:37;100351.16;;;19.24;100.00
30967;BME280;17649;51.836;8.330;2022-09-09T08:25:40;100348.75;;;19.58;100.00
30967;BME280;17649;51.836;8.330;2022-09-09T08:28:43;100347.59;;;19.43;100.00
30967;BME280;17649;51.836;8.330;2022-09-09T08:31:46;100350.97;;;19.53;100.00
30967;BME280;17649;51.836;8.330;2022-09-09T08:34:47;100339.75;;;19.33;100.00
30967;BME280;17649;51.836;8.330;2022-09-09T08:37:53;100360.47;;;19.09;100.00
30967;BME280;17649;51.836;8.330;2022-09-09T08:41:04;100373.56;;;18.71;100.00
30967;BME280;17649;51.836;8.330;2022-09-09T08:47:41;100374.00;;;18.57;100.00
30967;BME280;17649;51.836;8.330;2022-09-09T08:50:49;100379.94;;;18.69;100.00
30967;BME280;17649;51.836;8.330;2022-09-09T08:53:52;100377.59;;;18.75;100.00
30967;BME280;17649;51.836;8.330;2022-09-09T08:56:53;100378.00;;;18.61;100.00
30967;BME280;17649;51.836;8.330;2022-09-09T08:59:55;100377.59;;;18.66;100.00
30967;BME280;17649;51.836;8.330;2022-09-09T09:03:15;100377.28;;;18.79;100.00
30967;BME280;17649;51.836;8.330;2022-09-09T09:06:36;100379.38;;;19.12;100.00
30967;BME280;17649;51.836;8.330;2022-09-09T09:09:57;100363.94;;;19.36;100.00
30967;BME280;17649;51.836;8.330;2022-09-09T09:13:03;100364.91;;;19.53;100.00
30967;BME280;17649;51.836;8.330;2022-09-09T09:16:23;100358.38;;;19.12;100.00
30967;BME280;17649;51.836;8.330;2022-09-09T09:19:34;100362.81;;;19.12;100.00
30967;BME280;17649;51.836;8.330;2022-09-09T09:22:49;100355.97;;;19.46;100.00
30967;BME280;17649;51.836;8.330;2022-09-09T09:25:59;100355.66;;;19.31;100.00
30967;BME280;17649;51.836;8.330;2022-09-09T09:29:10;100353.63;;;19.25;100.00
30967;BME280;17649;51.836;8.330;2022-09-09T09:32:16;100352.81;;;19.25;100.00
30967;BME280;17649;51.836;8.330;2022-09-09T09:35:20;100355.97;;;19.46;100.00
30967;BME280;17649;51.836;8.330;2022-09-09T09:38:24;100343.19;;;19.61;100.00
30967;BME280;17649;51.836;8.330;2022-09-09T09:44:35;100334.44;;;19.70;100.00
30967;BME280;17649;51.836;8.330;2022-09-09T09:47:37;100336.38;;;19.86;100.00
30967;BME280;17649;51.836;8.330;2022-09-09T09:50:54;100338.66;;;19.81;100.00
30967;BME280;17649;51.836;8.330;2022-09-09T09:54:32;100342.94;;;19.64;100.00
30967;BME280;17649;51.836;8.330;2022-09-09T09:57:35;100333.63;;;19.70;100.00
30967;BME280;17649;51.836;8.330;2022-09-09T10:00:47;100329.25;;;19.60;100.00
30967;BME280;17649;51.836;8.330;2022-09-09T10:03:54;100336.25;;;19.42;100.00
30967;BME280;17649;51.836;8.330;2022-09-09T10:07:10;100326.72;;;19.23;100.00
30967;BME280;17649;51.836;8.330;2022-09-09T10:10:28;100342.72;;;19.48;100.00
30967;BME280;17649;51.836;8.330;2022-09-09T10:20:41;100336.59;;;19.57;100.00
30967;BME280;17649;51.836;8.330;2022-09-09T10:26:55;100342.31;;;19.70;100.00
30967;BME280;17649;51.836;8.330;2022-09-09T10:30:17;100342.00;;;19.55;100.00
30967;BME280;17649;51.836;8.330;2022-09-09T10:33:50;100339.69;;;19.70;100.00
30967;BME280;17649;51.836;8.330;2022-09-09T10:36:50;100332.47;;;19.90;100.00
30967;BME280;17649;51.836;8.330;2022-09-09T10:40:02;100316.34;;;20.03;100.00
30967;BME280;17649;51.836;8.330;2022-09-09T10:43:35;100318.31;;;20.27;100.00
30967;BME280;17649;51.836;8.330;2022-09-09T10:46:58;100306.50;;;20.48;100.00
30967;BME280;17649;51.836;8.330;2022-09-09T10:56:44;100289.47;;;21.45;100.00
30967;BME280;17649;51.836;8.330;2022-09-09T10:59:53;100289.63;;;22.00;100.00
30967;BME280;17649;51.836;8.330;2022-09-09T11:03:01;100289.47;;;21.45;100.00
30967;BME280;17649;51.836;8.330;2022-09-09T11:06:18;100291.75;;;21.48;100.00
30967;BME280;17649;51.836;8.330;2022-09-09T11:09:21;100281.06;;;21.66;100.00
30967;BME280;17649;51.836;8.330;2022-09-09T11:12:23;100284.88;;;21.63;100.00
30967;BME280;17649;51.836;8.330;2022-09-09T11:15:30;100284.81;;;21.39;100.00
30967;BME280;17649;51.836;8.330;2022-09-09T11:18:38;100279.34;;;21.16;100.00
30967;BME280;17649;51.836;8.330;2022-09-09T11:21:46;100285.22;;;21.02;100.00
30967;BME280;17649;51.836;8.330;2022-09-09T11:28:43;100277.63;;;21.82;100.00
30967;BME280;17649;51.836;8.330;2022-09-09T11:32:08;100291.78;;;21.72;100.00
30967;BME280;17649;51.836;8.330;2022-09-09T11:38:29;100283.44;;;22.57;100.00
30967;BME280;17649;51.836;8.330;2022-09-09T11:41:36;100278.59;;;23.16;100.00
30967;BME280;17649;51.836;8.330;2022-09-09T11:44:37;100281.97;;;23.78;100.00
30967;BME280;17649;51.836;8.330;2022-09-09T11:47:38;100280.03;;;24.25;100.00
30967;BME280;17649;51.836;8.330;2022-09-09T11:50:38;100276.72;;;24.46;100.00
30967;BME280;17649;51.836;8.330;2022-09-09T11:53:54;100266.84;;;24.54;100.00
30967;BME280;17649;51.836;8.330;2022-09-09T11:56:55;100260.63;;;24.77;100.00
30967;BME280;17649;51.836;8.330;2022-09-09T11:59:56;100252.06;;;24.75;100.00
30967;BME280;17649;51.836;8.330;2022-09-09T12:02:57;100254.97;;;24.80;100.00
30967;BME280;17649;51.836;8.330;2022-09-09T12:05:59;100247.19;;;24.93;100.00
30967;BME280;17649;51.836;8.330;2022-09-09T12:12:26;100248.03;;;24.79;100.00
30967;BME280;17649;51.836;8.330;2022-09-09T12:15:28;100251.44;;;24.28;100.00
30967;BME280;17649;51.836;8.330;2022-09-09T12:18:35;100248.78;;;24.14;100.00
30967;BME280;17649;51.836;8.330;2022-09-09T12:25:19;100245.34;;;24.28;100.00
30967;BME280;17649;51.836;8.330;2022-09-09T12:28:45;100249.59;;;23.39;100.00
30967;BME280;17649;51.836;8.330;2022-09-09T12:38:30;100257.06;;;22.57;100.00
30967;BME280;17649;51.836;8.330;2022-09-09T12:41:34;100257.88;;;22.10;100.00
30967;BME280;17649;51.836;8.330;2022-09-09T12:44:35;100266.56;;;21.86;100.00
30967;BME280;17649;51.836;8.330;2022-09-09T12:47:48;100275.94;;;21.40;100.00
30967;BME280;17649;51.836;8.330;2022-09-09T12:50:55;100287.84;;;20.60;100.00
30967;BME280;17649;51.836;8.330;2022-09-09T12:53:58;100292.97;;;19.56;100.00
30967;BME280;17649;51.836;8.330;2022-09-09T12:57:01;100295.16;;;20.04;100.00
30967;BME280;17649;51.836;8.330;2022-09-09T13:03:17;100283.53;;;21.84;100.00
30967;BME280;17649;51.836;8.330;2022-09-09T13:06:28;100282.59;;;22.65;100.00
30967;BME280;17649;51.836;8.330;2022-09-09T13:09:30;100257.44;;;23.70;100.00
30967;BME280;17649;51.836;8.330;2022-09-09T13:12:32;100254.13;;;24.05;100.00
30967;BME280;17649;51.836;8.330;2022-09-09T13:15:34;100241.84;;;26.56;100.00
30967;BME280;17649;51.836;8.330;2022-09-09T13:18:40;100228.84;;;25.70;100.00
30967;BME280;17649;51.836;8.330;2022-09-09T13:21:48;100227.00;;;26.33;100.00
30967;BME280;17649;51.836;8.330;2022-09-09T13:25:00;100227.84;;;26.75;100.00
30967;BME280;17649;51.836;8.330;2022-09-09T13:28:18;100205.72;;;27.62;100.00
30967;BME280;17649;51.836;8.330;2022-09-09T13:31:27;100222.06;;;26.24;100.00
30967;BME280;17649;51.836;8.330;2022-09-09T13:34:54;100215.53;;;27.35;94.67
30967;BME280;17649;51.836;8.330;2022-09-09T13:38:05;100212.72;;;28.61;86.75
30967;BME280;17649;51.836;8.330;2022-09-09T13:41:28;100212.88;;;27.61;87.26
30967;BME280;17649;51.836;8.330;2022-09-09T13:44:39;100194.75;;;26.78;98.37
30967;BME280;17649;51.836;8.330;2022-09-09T13:47:51;100210.50;;;26.03;100.00
30967;BME280;17649;51.836;8.330;2022-09-09T13:54:37;100191.84;;;28.96;66.92
30967;BME280;17649;51.836;8.330;2022-09-09T13:57:49;100202.06;;;27.83;76.32
30967;BME280;17649;51.836;8.330;2022-09-09T14:00:53;100207.41;;;25.44;100.00
30967;BME280;17649;51.836;8.330;2022-09-09T14:04:01;100200.72;;;23.66;100.00
30967;BME280;17649;51.836;8.330;2022-09-09T14:07:03;100202.16;;;23.45;100.00
30967;BME280;17649;51.836;8.330;2022-09-09T14:10:06;100212.66;;;22.77;100.00
30967;BME280;17649;51.836;8.330;2022-09-09T14:13:08;100211.22;;;22.27;100.00
30967;BME280;17649;51.836;8.330;2022-09-09T14:16:09;100208.44;;;22.20;100.00
30967;BME280;17649;51.836;8.330;2022-09-09T14:19:16;100217.53;;;22.10;100.00
30967;BME280;17649;51.836;8.330;2022-09-09T14:22:18;100218.94;;;22.28;100.00
30967;BME280;17649;51.836;8.330;2022-09-09T14:25:20;100221.59;;;22.28;100.00
30967;BME280;17649;51.836;8.330;2022-09-09T14:28:22;100217.94;;;22.38;100.00
30967;BME280;17649;51.836;8.330;2022-09-09T14:31:25;100229.13;;;22.40;100.00
30967;BME280;17649;51.836;8.330;2022-09-09T14:34:35;100224.56;;;22.34;100.00
30967;BME280;17649;51.836;8.330;2022-09-09T14:37:58;100220.00;;;23.43;100.00
30967;BME280;17649;51.836;8.330;2022-09-09T14:41:01;100210.31;;;25.27;100.00
30967;BME280;17649;51.836;8.330;2022-09-09T14:44:09;100214.22;;;25.10;100.00
30967;BME280;17649;51.836;8.330;2022-09-09T14:47:13;100216.25;;;23.98;100.00
30967;BME280;17649;51.836;8.330;2022-09-09T14:50:14;100207.50;;;24.27;100.00
30967;BME280;17649;51.836;8.330;2022-09-09T14:53:25;100206.06;;;23.49;100.00
30967;BME280;17649;51.836;8.330;2022-09-09T14:56:30;100207.63;;;23.44;100.00
30967;BME280;17649;51.836;8.330;2022-09-09T14:59:32;100207.38;;;22.85;100.00
30967;BME280;17649;51.836;8.330;2022-09-09T15:02:34;100203.59;;;22.79;100.00
30967;BME280;17649;51.836;8.330;2022-09-09T15:05:36;100207.19;;;22.86;100.00
30967;BME280;17649;51.836;8.330;2022-09-09T15:08:38;100203.97;;;22.68;100.00
30967;BME280;17649;51.836;8.330;2022-09-09T15:11:39;100209.38;;;22.36;100.00
30967;BME280;17649;51.836;8.330;2022-09-09T15:14:39;100212.66;;;22.38;100.00
30967;BME280;17649;51.836;8.330;2022-09-09T15:17:40;100209.59;;;22.65;100.00
30967;BME280;17649;51.836;8.330;2022-09-09T15:20:44;100220.63;;;22.21;100.00
30967;BME280;17649;51.836;8.330;2022-09-09T15:23:47;100219.28;;;22.25;100.00
30967;BME280;17649;51.836;8.330;2022-09-09T15:26:51;100219.16;;;22.19;100.00
30967;BME280;17649;51.836;8.330;2022-09-09T15:29:51;100218.94;;;22.37;100.00
30967;BME280;17649;51.836;8.330;2022-09-09T15:32:52;100225.53;;;22.33;100.00
30967;BME280;17649;51.836;8.330;2022-09-09T15:35:53;100218.47;;;22.33;100.00
30967;BME280;17649;51.836;8.330;2022-09-09T15:38:58;100227.59;;;21.90;100.00
30967;BME280;17649;51.836;8.330;2022-09-09T15:41:59;100228.59;;;21.64;100.00
30967;BME280;17649;51.836;8.330;2022-09-09T15:45:01;100232.03;;;21.81;100.00
30967;BME280;17649;51.836;8.330;2022-09-09T15:48:04;100230.00;;;21.18;100.00
30967;BME280;17649;51.836;8.330;2022-09-09T15:51:11;100234.44;;;21.18;100.00
30967;BME280;17649;51.836;8.330;2022-09-09T15:54:16;100241.56;;;21.33;100.00
30967;BME280;17649;51.836;8.330;2022-09-09T15:57:19;100237.31;;;21.65;100.00
30967;BME280;17649;51.836;8.330;2022-09-09T16:00:21;100242.06;;;21.94;100.00
30967;BME280;17649;51.836;8.330;2022-09-09T16:03:24;100229.53;;;21.96;100.00
30967;BME280;17649;51.836;8.330;2022-09-09T16:06:27;100230.00;;;22.71;100.00
30967;BME280;17649;51.836;8.330;2022-09-09T16:09:30;100234.50;;;22.63;100.00
30967;BME280;17649;51.836;8.330;2022-09-09T16:12:31;100234.41;;;22.79;100.00
30967;BME280;17649;51.836;8.330;2022-09-09T16:15:33;100235.69;;;22.91;100.00
30967;BME280;17649;51.836;8.330;2022-09-09T16:18:44;100238.53;;;22.73;100.00
30967;BME280;17649;51.836;8.330;2022-09-09T16:21:51;100241.44;;;22.55;100.00
30967;BME280;17649;51.836;8.330;2022-09-09T16:24:54;100265.28;;;21.66;100.00
30967;BME280;17649;51.836;8.330;2022-09-09T16:27:57;100270.03;;;21.30;100.00
30967;BME280;17649;51.836;8.330;2022-09-09T16:31:07;100286.50;;;20.56;100.00
30967;BME280;17649;51.836;8.330;2022-09-09T16:34:09;100291.31;;;19.73;100.00
30967;BME280;17649;51.836;8.330;2022-09-09T16:37:14;100318.94;;;19.04;100.00
30967;BME280;17649;51.836;8.330;2022-09-09T16:40:16;100328.06;;;18.72;100.00
30967;BME280;17649;51.836;8.330;2022-09-09T16:43:18;100328.50;;;18.68;100.00
30967;BME280;17649;51.836;8.330;2022-09-09T16:46:21;100324.56;;;18.82;100.00
30967;BME280;17649;51.836;8.330;2022-09-09T16:49:24;100332.81;;;18.87;100.00
30967;BME280;17649;51.836;8.330;2022-09-09T16:52:28;100322.50;;;18.85;100.00
30967;BME280;17649;51.836;8.330;2022-09-09T16:55:33;100327.84;;;18.93;100.00
30967;BME280;17649;51.836;8.330;2022-09-09T16:58:35;100331.66;;;18.99;100.00
30967;BME280;17649;51.836;8.330;2022-09-09T17:01:40;100334.00;;;19.02;100.00
30967;BME280;17649;51.836;8.330;2022-09-09T17:04:43;100341.63;;;18.95;100.00
30967;BME280;17649;51.836;8.330;2022-09-09T17:07:57;100352.50;;;19.00;100.00
30967;BME280;17649;51.836;8.330;2022-09-09T17:15:30;100375.97;;;18.36;100.00
30967;BME280;17649;51.836;8.330;2022-09-09T17:18:32;100381.25;;;18.16;100.00
30967;BME280;17649;51.836;8.330;2022-09-09T17:21:43;100388.13;;;18.08;100.00
30967;BME280;17649;51.836;8.330;2022-09-09T17:24:55;100389.09;;;18.16;100.00
30967;BME280;17649;51.836;8.330;2022-09-09T17:27:58;100379.03;;;18.12;100.00
30967;BME280;17649;51.836;8.330;2022-09-09T17:31:01;100380.13;;;17.90;100.00
30967;BME280;17649;51.836;8.330;2022-09-09T17:34:05;100382.88;;;17.79;100.00
30967;BME280;17649;51.836;8.330;2022-09-09T17:37:09;100383.22;;;17.55;100.00